createdAt,value
2018-08-31T00:02:02.439Z,2.87
2018-08-31T00:04:42.599Z,2.10
2018-08-31T00:07:23.348Z,2.80
2018-08-31T00:13:06.889Z,3.63
2018-08-31T00:15:34.448Z,3.23
2018-08-31T00:18:02.360Z,3.80
2018-08-31T00:20:29.890Z,4.50
2018-08-31T00:22:57.432Z,2.77
2018-08-31T00:26:04.292Z,3.30
2018-08-31T00:28:43.173Z,3.70
2018-08-31T00:31:23.062Z,4.33
2018-08-31T00:34:04.079Z,2.30
2018-08-31T00:36:42.464Z,2.20
2018-08-31T00:41:32.488Z,1.97
2018-08-31T00:44:13.318Z,2.40
2018-08-31T00:46:41.948Z,2.57
2018-08-31T00:49:09.445Z,2.67
2018-08-31T00:51:36.932Z,2.30
2018-08-31T00:54:04.772Z,2.40
2018-08-31T00:56:32.342Z,2.33
2018-08-31T00:58:59.941Z,2.00
2018-08-31T01:01:27.460Z,2.57
2018-08-31T01:03:55.288Z,3.37
2018-08-31T01:06:22.904Z,2.10
2018-08-31T01:08:51.000Z,4.70
2018-08-31T01:12:48.473Z,1.40
2018-08-31T01:15:16.406Z,2.17
2018-08-31T01:17:43.929Z,3.63
2018-08-31T01:20:11.436Z,3.07
2018-08-31T01:22:38.997Z,2.77
2018-08-31T01:25:08.384Z,2.30
2018-08-31T01:27:35.910Z,3.07
2018-08-31T01:30:05.800Z,3.20
2018-08-31T01:32:33.378Z,4.20
2018-08-31T01:35:01.786Z,3.90
2018-08-31T01:37:30.293Z,3.50
2018-08-31T01:39:58.512Z,2.30
2018-08-31T01:42:26.394Z,2.27
2018-08-31T01:44:53.920Z,1.80
2018-08-31T01:47:21.877Z,2.37
2018-08-31T01:49:49.436Z,2.73
2018-08-31T01:52:17.608Z,2.73
2018-08-31T01:54:45.124Z,2.57
2018-08-31T01:57:12.650Z,2.70
2018-08-31T01:59:40.528Z,2.20
2018-08-31T02:02:08.646Z,3.27
2018-08-31T02:04:36.228Z,2.97
2018-08-31T02:07:04.415Z,2.57
2018-08-31T02:09:31.934Z,2.47
2018-08-31T02:11:59.866Z,2.57
2018-08-31T02:14:27.405Z,2.30
2018-08-31T02:16:54.922Z,2.47
2018-08-31T02:19:22.485Z,4.00
2018-08-31T02:21:50.136Z,3.30
2018-08-31T02:24:18.154Z,3.13
2018-08-31T02:26:46.050Z,2.80
2018-08-31T02:29:14.110Z,3.63
2018-08-31T02:31:41.636Z,2.80
2018-08-31T02:34:09.698Z,2.23
2018-08-31T02:36:37.858Z,2.83
2018-08-31T02:39:07.471Z,3.10
2018-08-31T02:41:35.516Z,8.27
2018-08-31T02:44:03.108Z,7.27
2018-08-31T02:46:31.110Z,4.10
2018-08-31T02:48:58.681Z,3.60
2018-08-31T02:51:26.770Z,3.67
2018-08-31T02:53:54.331Z,3.40
2018-08-31T02:56:22.250Z,3.83
2018-08-31T02:58:50.346Z,3.47
2018-08-31T03:01:17.855Z,2.80
2018-08-31T03:03:45.683Z,2.67
2018-08-31T03:06:13.200Z,2.70
2018-08-31T03:08:40.749Z,2.77
2018-08-31T03:11:08.671Z,3.00
2018-08-31T03:13:36.226Z,3.13
2018-08-31T03:16:04.097Z,4.97
2018-08-31T03:18:31.643Z,5.20
2018-08-31T03:20:59.168Z,3.50
2018-08-31T03:23:26.737Z,4.60
2018-08-31T03:25:55.093Z,3.17
2018-08-31T03:28:23.170Z,3.67
2018-08-31T03:30:51.391Z,4.70
2018-08-31T03:33:19.279Z,3.07
2018-08-31T03:35:46.816Z,3.63
2018-08-31T03:38:14.826Z,4.40
2018-08-31T03:40:42.330Z,3.83
2018-08-31T03:43:10.375Z,3.07
2018-08-31T03:45:38.220Z,3.13
2018-08-31T03:48:05.758Z,3.60
2018-08-31T03:50:33.277Z,3.40
2018-08-31T03:53:00.835Z,2.97
2018-08-31T03:55:28.780Z,3.23
2018-08-31T03:57:56.716Z,3.30
2018-08-31T04:00:24.284Z,3.93
2018-08-31T04:02:52.399Z,2.60
2018-08-31T04:05:20.488Z,3.40
2018-08-31T04:07:48.024Z,3.03
2018-08-31T04:10:15.565Z,4.27
2018-08-31T04:12:43.628Z,3.07
2018-08-31T04:15:11.249Z,3.50
2018-08-31T04:17:39.012Z,4.83
2018-08-31T04:20:07.548Z,3.20
2018-08-31T04:22:35.114Z,3.10
2018-08-31T04:25:03.255Z,3.67
2018-08-31T04:27:31.528Z,4.13
2018-08-31T04:29:59.407Z,4.00
2018-08-31T04:32:26.906Z,2.90
2018-08-31T04:34:55.717Z,5.10
2018-08-31T04:37:23.792Z,3.90
2018-08-31T04:39:51.284Z,3.10
2018-08-31T04:42:19.375Z,3.97
2018-08-31T04:44:46.871Z,4.10
2018-08-31T04:47:15.023Z,3.63
2018-08-31T04:49:43.099Z,4.10
2018-08-31T04:52:10.949Z,4.90
2018-08-31T04:54:39.384Z,3.67
2018-08-31T04:57:06.918Z,4.00
2018-08-31T04:59:34.864Z,4.37
2018-08-31T05:02:02.433Z,4.67
2018-08-31T05:04:29.938Z,4.60
2018-08-31T05:06:57.498Z,8.77
2018-08-31T05:09:25.120Z,10.87
2018-08-31T05:11:53.061Z,7.03
2018-08-31T05:14:20.592Z,6.80
2018-08-31T05:16:48.133Z,5.90
2018-08-31T05:19:15.658Z,6.90
2018-08-31T05:21:43.709Z,8.30
2018-08-31T05:24:11.392Z,5.80
2018-08-31T05:26:39.461Z,6.80
2018-08-31T05:29:07.013Z,7.07
2018-08-31T05:31:34.894Z,5.97
2018-08-31T05:34:02.994Z,6.40
2018-08-31T05:36:30.501Z,5.60
2018-08-31T05:38:58.422Z,6.57
2018-08-31T05:41:26.358Z,6.90
2018-08-31T05:43:54.527Z,6.20
2018-08-31T05:46:22.153Z,7.63
2018-08-31T05:48:49.679Z,5.80
2018-08-31T05:51:17.852Z,5.20
2018-08-31T05:53:45.358Z,3.90
2018-08-31T05:56:13.602Z,4.63
2018-08-31T05:58:41.119Z,5.37
2018-08-31T06:01:09.220Z,5.10
2018-08-31T06:03:36.799Z,4.90
2018-08-31T06:06:04.322Z,5.60
2018-08-31T06:08:31.953Z,5.60
2018-08-31T06:11:00.189Z,6.50
2018-08-31T06:13:28.108Z,5.93
2018-08-31T06:15:56.141Z,7.57
2018-08-31T06:18:23.700Z,6.50
2018-08-31T06:20:51.259Z,7.17
2018-08-31T06:23:18.912Z,6.87
2018-08-31T06:25:46.902Z,7.70
2018-08-31T06:28:14.795Z,6.50
2018-08-31T06:30:42.645Z,7.67
2018-08-31T06:33:10.161Z,7.40
2018-08-31T06:35:37.685Z,7.97
2018-08-31T06:38:05.596Z,9.70
2018-08-31T06:40:33.568Z,9.20
2018-08-31T06:43:01.448Z,8.60
2018-08-31T06:45:29.100Z,9.17
2018-08-31T06:47:56.932Z,7.90
2018-08-31T06:50:24.797Z,8.90
2018-08-31T06:52:52.327Z,8.47
2018-08-31T06:55:20.535Z,8.00
2018-08-31T06:57:48.045Z,8.57
2018-08-31T07:00:15.567Z,7.93
2018-08-31T07:02:43.076Z,6.50
2018-08-31T07:05:10.605Z,6.50
2018-08-31T07:07:38.735Z,6.53
2018-08-31T07:10:06.348Z,6.90
2018-08-31T07:12:34.444Z,7.23
2018-08-31T07:15:02.022Z,6.90
2018-08-31T07:17:29.512Z,6.33
2018-08-31T07:19:57.086Z,5.17
2018-08-31T07:22:24.941Z,7.80
2018-08-31T07:24:54.375Z,7.87
2018-08-31T07:27:22.232Z,7.10
2018-08-31T07:29:49.744Z,8.20
2018-08-31T07:32:17.383Z,8.03
2018-08-31T07:34:44.864Z,8.90
2018-08-31T07:37:13.333Z,8.50
2018-08-31T07:39:41.332Z,7.87
2018-08-31T07:42:09.205Z,6.40
2018-08-31T07:44:36.738Z,7.63
2018-08-31T07:47:05.456Z,7.30
2018-08-31T07:49:32.981Z,7.00
2018-08-31T07:52:01.268Z,9.13
2018-08-31T07:54:28.768Z,6.60
2018-08-31T07:56:56.695Z,9.40
2018-08-31T07:59:25.393Z,7.90
2018-08-31T08:01:53.659Z,8.40
2018-08-31T08:04:21.151Z,7.90
2018-08-31T08:06:48.647Z,9.77
2018-08-31T08:09:16.835Z,9.73
2018-08-31T08:11:46.343Z,8.20
2018-08-31T08:14:14.151Z,8.90
2018-08-31T08:16:44.386Z,8.70
2018-08-31T08:19:12.679Z,11.23
2018-08-31T08:21:40.208Z,9.63
2018-08-31T08:24:07.769Z,8.20
2018-08-31T08:26:36.486Z,9.73
2018-08-31T08:29:05.616Z,9.00
2018-08-31T08:31:33.150Z,10.53
2018-08-31T08:34:01.063Z,8.77
2018-08-31T08:36:29.341Z,8.13
2018-08-31T08:38:57.933Z,7.77
2018-08-31T08:41:26.175Z,7.77
2018-08-31T08:43:54.175Z,7.77
2018-08-31T08:46:22.363Z,7.70
2018-08-31T08:48:49.937Z,9.30
2018-08-31T08:51:17.903Z,9.87
2018-08-31T08:53:45.397Z,9.00
2018-08-31T08:56:12.989Z,8.20
2018-08-31T08:58:40.891Z,10.20
2018-08-31T09:01:08.584Z,10.57
2018-08-31T09:03:36.143Z,9.70
2018-08-31T09:06:03.756Z,8.70
2018-08-31T09:08:31.266Z,10.00
2018-08-31T09:11:00.023Z,10.97
2018-08-31T09:13:29.120Z,13.90
2018-08-31T09:15:57.178Z,11.80
2018-08-31T09:18:27.595Z,10.50
2018-08-31T09:20:56.018Z,11.33
2018-08-31T09:23:24.912Z,12.73
2018-08-31T09:25:53.962Z,13.00
2018-08-31T09:28:22.066Z,11.73
2018-08-31T09:30:49.610Z,11.03
2018-08-31T09:33:17.924Z,10.47
2018-08-31T09:35:46.518Z,8.30
2018-08-31T09:38:14.820Z,8.57
2018-08-31T09:40:42.334Z,9.27
2018-08-31T09:43:10.274Z,8.27
2018-08-31T09:45:37.847Z,9.30
2018-08-31T09:48:06.160Z,9.53
2018-08-31T09:50:33.886Z,8.93
2018-08-31T09:53:01.409Z,8.90
2018-08-31T09:55:29.890Z,8.30
2018-08-31T09:57:58.324Z,8.53
2018-08-31T10:00:31.652Z,8.33
2018-08-31T10:03:05.176Z,7.70
2018-08-31T10:05:32.849Z,7.93
2018-08-31T10:08:00.362Z,8.47
2018-08-31T10:10:28.744Z,8.87
2018-08-31T10:12:57.052Z,8.53
2018-08-31T10:15:25.165Z,8.93
2018-08-31T10:17:52.756Z,8.20
2018-08-31T10:20:21.724Z,7.90
2018-08-31T10:22:49.229Z,7.40
2018-08-31T10:25:17.188Z,8.53
2018-08-31T10:27:44.701Z,8.80
2018-08-31T10:30:12.309Z,7.80
2018-08-31T10:32:39.938Z,8.13
2018-08-31T10:35:07.750Z,9.40
2018-08-31T10:37:36.474Z,7.90
2018-08-31T10:40:04.539Z,9.00
2018-08-31T10:42:32.457Z,8.83
2018-08-31T10:45:00.536Z,9.00
2018-08-31T10:47:28.420Z,9.10
2018-08-31T10:49:56.022Z,8.90
2018-08-31T10:52:23.580Z,9.60
2018-08-31T10:54:51.871Z,10.10
2018-08-31T10:57:19.401Z,10.50
2018-08-31T10:59:46.981Z,9.10
2018-08-31T11:02:14.752Z,10.80
2018-08-31T11:04:42.580Z,10.20
2018-08-31T11:07:10.110Z,9.10
2018-08-31T11:09:37.652Z,9.20
2018-08-31T11:12:06.196Z,10.30
2018-08-31T11:14:33.725Z,10.07
2018-08-31T11:17:01.565Z,10.40
2018-08-31T11:19:29.925Z,10.00
2018-08-31T11:21:57.456Z,11.70
2018-08-31T11:24:25.013Z,11.77
2018-08-31T11:26:52.920Z,11.17
2018-08-31T11:29:20.468Z,11.07
2018-08-31T11:31:48.000Z,11.43
2018-08-31T11:34:15.557Z,11.60
2018-08-31T11:36:43.490Z,11.70
2018-08-31T11:39:11.784Z,13.30
2018-08-31T11:41:39.919Z,13.20
2018-08-31T11:44:08.414Z,13.13
2018-08-31T11:46:35.956Z,11.93
2018-08-31T11:49:03.573Z,13.30
2018-08-31T11:51:31.272Z,12.30
2018-08-31T11:53:58.890Z,13.70
2018-08-31T11:56:26.512Z,16.40
2018-08-31T11:58:54.066Z,14.23
2018-08-31T12:01:22.295Z,13.47
2018-08-31T12:03:50.089Z,13.50
2018-08-31T12:06:17.618Z,13.87
2018-08-31T12:08:45.144Z,12.73
2018-08-31T12:11:13.112Z,12.60
2018-08-31T12:13:40.641Z,13.93
2018-08-31T12:16:08.946Z,14.13
2018-08-31T12:18:36.503Z,15.07
2018-08-31T12:21:04.047Z,14.80
2018-08-31T12:23:31.589Z,15.30
2018-08-31T12:25:59.799Z,13.60
2018-08-31T12:28:27.998Z,15.20
2018-08-31T12:30:56.910Z,13.93
2018-08-31T12:33:24.405Z,13.33
2018-08-31T12:35:52.509Z,13.67
2018-08-31T12:38:21.018Z,13.10
2018-08-31T12:40:49.351Z,14.60
2018-08-31T12:43:16.879Z,14.07
2018-08-31T12:45:44.394Z,13.93
2018-08-31T12:48:11.947Z,13.67
2018-08-31T12:50:39.496Z,15.37
2018-08-31T12:53:07.103Z,13.40
2018-08-31T12:55:34.978Z,14.90
2018-08-31T12:58:02.529Z,14.60
2018-08-31T13:00:30.066Z,14.90
2018-08-31T13:02:57.594Z,14.30
2018-08-31T13:05:25.143Z,17.00
2018-08-31T13:07:53.173Z,16.80
2018-08-31T13:10:20.677Z,19.87
2018-08-31T13:12:49.131Z,17.17
2018-08-31T13:15:16.679Z,16.77
2018-08-31T13:17:44.271Z,17.13
2018-08-31T13:20:11.887Z,17.53
2018-08-31T13:22:39.839Z,16.27
2018-08-31T13:25:07.442Z,16.77
2018-08-31T13:27:35.557Z,18.80
2018-08-31T13:30:03.899Z,17.80
2018-08-31T13:32:32.347Z,17.40
2018-08-31T13:34:59.864Z,18.17
2018-08-31T13:37:27.767Z,17.93
2018-08-31T13:39:55.277Z,18.53
2018-08-31T13:42:23.376Z,17.73
2018-08-31T13:44:51.141Z,19.47
2018-08-31T13:47:18.775Z,18.30
2018-08-31T13:49:46.968Z,16.17
2018-08-31T13:52:14.533Z,18.43
2018-08-31T13:54:42.629Z,18.17
2018-08-31T13:57:10.402Z,16.67
2018-08-31T13:59:39.650Z,17.80
2018-08-31T14:02:07.226Z,15.87
2018-08-31T14:04:34.740Z,15.40
2018-08-31T14:07:03.605Z,18.10
2018-08-31T14:09:31.212Z,16.03
2018-08-31T14:11:59.102Z,18.90
2018-08-31T14:14:26.613Z,19.33
2018-08-31T14:16:54.123Z,18.67
2018-08-31T14:19:21.647Z,17.70
2018-08-31T14:21:49.625Z,16.70
2018-08-31T14:24:17.122Z,16.33
2018-08-31T14:26:45.120Z,16.17
2018-08-31T14:29:12.661Z,18.17
2018-08-31T14:31:40.713Z,16.40
2018-08-31T14:34:08.223Z,18.30
2018-08-31T14:36:36.675Z,17.20
2018-08-31T14:39:07.163Z,17.37
2018-08-31T14:41:35.260Z,18.13
2018-08-31T14:44:02.904Z,16.93
2018-08-31T14:46:30.350Z,17.83
2018-08-31T14:48:57.903Z,16.07
2018-08-31T14:51:25.440Z,16.50
2018-08-31T14:53:53.043Z,15.17
2018-08-31T14:56:20.578Z,14.73
2018-08-31T15:01:15.519Z,16.40
2018-08-31T15:03:43.355Z,16.00
2018-08-31T15:06:11.336Z,18.20
2018-08-31T15:08:39.690Z,17.83
2018-08-31T15:11:07.991Z,18.00
2018-08-31T15:13:35.524Z,17.30
2018-08-31T15:16:03.820Z,19.57
2018-08-31T15:18:31.368Z,19.03
2018-08-31T15:20:58.892Z,18.87
2018-08-31T15:23:27.394Z,20.10
2018-08-31T15:25:55.253Z,19.53
2018-08-31T15:28:23.951Z,18.20
2018-08-31T15:30:51.484Z,18.50
2018-08-31T15:33:19.377Z,19.40
2018-08-31T15:35:47.384Z,19.23
2018-08-31T15:39:44.804Z,20.70
2018-08-31T15:42:12.762Z,19.30
2018-08-31T15:44:40.880Z,17.00
2018-08-31T15:47:08.400Z,18.17
2018-08-31T15:49:36.381Z,18.77
2018-08-31T15:52:03.946Z,17.77
2018-08-31T15:54:31.493Z,20.60
2018-08-31T15:56:59.107Z,19.20
2018-08-31T15:59:26.800Z,17.20
2018-08-31T16:01:55.319Z,19.67
2018-08-31T16:04:23.359Z,18.60
2018-08-31T16:06:51.206Z,19.30
2018-08-31T16:09:18.751Z,19.40
2018-08-31T16:11:46.903Z,18.57
2018-08-31T16:14:14.405Z,19.70
2018-08-31T16:16:41.968Z,19.00
2018-08-31T16:19:09.552Z,19.70
2018-08-31T16:21:38.066Z,19.23
2018-08-31T16:24:06.166Z,18.50
2018-08-31T16:26:34.173Z,20.90
2018-08-31T16:29:01.867Z,18.90
2018-08-31T16:31:29.642Z,19.47
2018-08-31T16:33:57.250Z,21.30
2018-08-31T16:36:25.666Z,18.70
2018-08-31T16:38:54.020Z,21.73
2018-08-31T16:41:21.890Z,21.27
2018-08-31T16:43:50.037Z,22.20
2018-08-31T16:46:17.616Z,20.73
2018-08-31T16:48:45.731Z,21.67
2018-08-31T16:51:13.294Z,20.77
2018-08-31T16:53:40.789Z,20.27
2018-08-31T16:56:08.687Z,22.67
2018-08-31T16:58:37.017Z,23.40
2018-08-31T17:01:05.427Z,22.20
2018-08-31T17:03:33.449Z,23.97
2018-08-31T17:06:02.683Z,22.93
2018-08-31T17:08:30.218Z,24.13
2018-08-31T17:10:58.163Z,23.00
2018-08-31T17:13:26.662Z,22.90
2018-08-31T17:15:54.265Z,25.83
2018-08-31T17:18:22.143Z,22.07
2018-08-31T17:20:50.709Z,22.80
2018-08-31T17:23:18.688Z,22.57
2018-08-31T17:25:46.727Z,24.60
2018-08-31T17:28:20.813Z,21.27
2018-08-31T17:30:51.736Z,20.60
2018-08-31T17:33:25.013Z,21.17
2018-08-31T17:35:58.299Z,20.03
2018-08-31T17:38:26.246Z,17.63
2018-08-31T17:40:54.216Z,20.47
2018-08-31T17:43:22.932Z,19.00
2018-08-31T17:45:50.486Z,19.23
2018-08-31T17:48:18.460Z,18.17
2018-08-31T17:50:46.026Z,17.40
2018-08-31T17:53:13.587Z,18.33
2018-08-31T17:55:41.813Z,19.20
2018-08-31T17:58:09.363Z,18.87
2018-08-31T18:00:36.895Z,19.40
2018-08-31T18:03:04.876Z,20.13
2018-08-31T18:05:32.905Z,20.17
2018-08-31T18:08:00.456Z,18.37
2018-08-31T18:10:29.186Z,19.27
2018-08-31T18:12:57.056Z,20.47
2018-08-31T18:15:24.656Z,19.80
2018-08-31T18:17:52.134Z,18.90
2018-08-31T18:20:20.457Z,20.50
2018-08-31T18:22:48.031Z,19.93
2018-08-31T18:25:16.357Z,19.80
2018-08-31T18:27:44.373Z,19.37
2018-08-31T18:30:12.037Z,16.60
2018-08-31T18:32:40.897Z,16.10
2018-08-31T18:35:07.746Z,16.83
2018-08-31T18:37:35.925Z,16.83
2018-08-31T18:40:03.809Z,19.00
2018-08-31T18:42:31.767Z,15.30
2018-08-31T18:44:59.438Z,14.70
2018-08-31T18:47:27.400Z,15.83
2018-08-31T18:49:55.895Z,15.40
2018-08-31T18:52:23.471Z,14.00
2018-08-31T18:54:51.802Z,13.50
2018-08-31T18:57:19.315Z,12.50
2018-08-31T18:59:47.206Z,11.63
2018-08-31T19:02:15.195Z,12.63
2018-08-31T19:04:43.055Z,11.80
2018-08-31T19:07:10.723Z,13.10
2018-08-31T19:09:38.355Z,11.53
2018-08-31T19:12:06.503Z,12.97
2018-08-31T19:14:34.144Z,10.63
2018-08-31T19:17:01.800Z,10.10
2018-08-31T19:19:29.828Z,10.97
2018-08-31T19:21:57.606Z,10.23
2018-08-31T19:24:25.691Z,12.90
2018-08-31T19:26:56.344Z,9.93
2018-08-31T19:29:25.730Z,10.50
2018-08-31T19:31:53.383Z,10.70
2018-08-31T19:34:21.142Z,9.53
2018-08-31T19:36:49.064Z,10.87
2018-08-31T19:39:16.766Z,10.40
2018-08-31T19:41:44.807Z,10.90
2018-08-31T19:44:13.288Z,10.10
2018-08-31T19:46:41.302Z,11.50
2018-08-31T19:49:09.263Z,11.03
2018-08-31T19:51:36.822Z,10.57
2018-08-31T19:55:34.510Z,9.87
2018-08-31T19:58:02.985Z,9.80
2018-08-31T20:00:31.286Z,9.13
2018-08-31T20:02:58.826Z,10.53
2018-08-31T20:05:27.621Z,9.53
2018-08-31T20:07:55.152Z,10.53
2018-08-31T20:10:23.841Z,10.70
2018-08-31T20:12:51.781Z,11.47
2018-08-31T20:15:19.672Z,12.70
2018-08-31T20:17:47.632Z,12.77
2018-08-31T20:20:15.293Z,13.30
2018-08-31T20:22:43.479Z,13.77
2018-08-31T20:25:11.183Z,13.13
2018-08-31T20:27:39.130Z,13.47
2018-08-31T20:30:07.213Z,14.60
2018-08-31T20:32:34.870Z,15.70
2018-08-31T20:35:04.562Z,16.07
2018-08-31T20:37:32.486Z,13.77
2018-08-31T20:40:00.144Z,15.50
2018-08-31T20:42:28.159Z,14.87
2018-08-31T20:44:56.452Z,15.27
2018-08-31T20:47:24.201Z,16.10
2018-08-31T20:49:51.615Z,16.83
2018-08-31T20:52:19.173Z,17.83
2018-08-31T20:54:47.304Z,17.03
2018-08-31T20:57:15.511Z,19.30
2018-08-31T20:59:44.072Z,21.10
2018-08-31T21:02:12.494Z,18.80
2018-08-31T21:04:40.184Z,19.20
2018-08-31T21:07:07.756Z,19.80
2018-08-31T21:09:35.288Z,20.20
2018-08-31T21:12:03.470Z,20.37
2018-08-31T21:14:31.407Z,20.00
2018-08-31T21:16:59.066Z,21.30
2018-08-31T21:19:28.255Z,20.63
2018-08-31T21:21:55.912Z,20.03
2018-08-31T21:24:24.139Z,22.93
2018-08-31T21:26:52.194Z,19.77
2018-08-31T21:29:19.731Z,23.00
2018-08-31T21:31:47.658Z,21.23
2018-08-31T21:34:15.189Z,26.63
2018-08-31T21:36:43.324Z,21.70
2018-08-31T21:39:10.876Z,22.53
2018-08-31T21:41:39.777Z,20.60
2018-08-31T21:44:07.356Z,20.37
2018-08-31T21:46:34.929Z,18.57
2018-08-31T21:49:02.788Z,20.60
2018-08-31T21:51:30.808Z,21.40
2018-08-31T21:53:58.959Z,21.53
2018-08-31T21:56:26.484Z,21.20
2018-08-31T21:58:54.464Z,22.87
2018-08-31T22:01:27.787Z,19.30
2018-08-31T22:03:55.337Z,20.07
2018-08-31T22:06:23.436Z,18.83
2018-08-31T22:08:51.003Z,20.60
2018-08-31T22:11:19.079Z,18.77
2018-08-31T22:13:47.169Z,19.07
2018-08-31T22:16:15.132Z,17.80
2018-08-31T22:18:42.688Z,18.80
2018-08-31T22:21:10.236Z,18.77
2018-08-31T22:23:37.798Z,17.50
2018-08-31T22:26:06.572Z,20.17
2018-08-31T22:28:34.084Z,20.50
2018-08-31T22:31:01.608Z,17.07
2018-08-31T22:33:29.166Z,18.03
2018-08-31T22:35:56.679Z,16.97
2018-08-31T22:38:25.064Z,17.27
2018-08-31T22:40:52.972Z,18.60
2018-08-31T22:43:25.415Z,16.40
2018-08-31T22:45:53.276Z,15.37
2018-08-31T22:48:20.840Z,15.33
2018-08-31T22:50:48.721Z,15.60
2018-08-31T22:53:17.012Z,16.73
2018-08-31T22:55:44.565Z,15.53
2018-08-31T22:58:12.697Z,15.47
2018-08-31T23:00:40.219Z,16.80
2018-08-31T23:03:07.719Z,17.80
2018-08-31T23:05:35.324Z,14.10
2018-08-31T23:08:03.316Z,13.10
2018-08-31T23:10:32.281Z,14.70
2018-08-31T23:13:00.594Z,15.70
2018-08-31T23:15:28.548Z,12.00
2018-08-31T23:17:56.094Z,11.63
2018-08-31T23:20:23.685Z,11.57
2018-08-31T23:22:56.063Z,11.87
2018-08-31T23:25:30.210Z,10.40
2018-08-31T23:27:58.216Z,12.00
2018-08-31T23:30:25.757Z,10.83
2018-08-31T23:32:53.328Z,11.57
2018-08-31T23:35:21.479Z,11.20
2018-08-31T23:37:49.576Z,9.57
2018-08-31T23:40:18.959Z,8.80
2018-08-31T23:42:47.203Z,9.60
2018-08-31T23:45:15.688Z,10.63
2018-08-31T23:47:43.620Z,10.70
2018-08-31T23:50:11.516Z,11.03
2018-08-31T23:52:39.077Z,9.87
2018-08-31T23:55:06.804Z,9.20
2018-08-31T23:57:34.856Z,8.90
